sensor_id;sensor_type;location;lat;lon;timestamp;P1;durP1;ratioP1;P2;durP2;ratioP2
52508;SDS011;38420;53.150;6.370;2024-03-08T00:00:10;19.55;;;6.25;;
52508;SDS011;38420;53.150;6.370;2024-03-08T00:02:40;16.20;;;7.60;;
52508;SDS011;38420;53.150;6.370;2024-03-08T00:05:10;14.48;;;7.70;;
52508;SDS011;38420;53.150;6.370;2024-03-08T00:07:36;20.33;;;7.75;;
52508;SDS011;38420;53.150;6.370;2024-03-08T00:10:06;16.98;;;7.70;;
52508;SDS011;38420;53.150;6.370;2024-03-08T00:12:39;15.43;;;7.10;;
52508;SDS011;38420;53.150;6.370;2024-03-08T00:15:09;16.10;;;7.30;;
52508;SDS011;38420;53.150;6.370;2024-03-08T00:17:35;16.63;;;8.27;;
52508;SDS011;38420;53.150;6.370;2024-03-08T00:20:01;14.98;;;6.13;;
52508;SDS011;38420;53.150;6.370;2024-03-08T00:22:33;14.77;;;6.43;;
52508;SDS011;38420;53.150;6.370;2024-03-08T00:24:59;17.75;;;7.90;;
52508;SDS011;38420;53.150;6.370;2024-03-08T00:27:25;17.33;;;7.60;;
52508;SDS011;38420;53.150;6.370;2024-03-08T00:29:50;17.02;;;7.85;;
52508;SDS011;38420;53.150;6.370;2024-03-08T00:32:16;14.80;;;7.53;;
52508;SDS011;38420;53.150;6.370;2024-03-08T00:34:42;19.23;;;8.98;;
52508;SDS011;38420;53.150;6.370;2024-03-08T00:37:08;17.85;;;8.00;;
52508;SDS011;38420;53.150;6.370;2024-03-08T00:39:33;15.60;;;5.88;;
52508;SDS011;38420;53.150;6.370;2024-03-08T00:41:59;13.90;;;6.65;;
52508;SDS011;38420;53.150;6.370;2024-03-08T00:44:24;17.50;;;6.75;;
52508;SDS011;38420;53.150;6.370;2024-03-08T00:46:50;20.60;;;8.02;;
52508;SDS011;38420;53.150;6.370;2024-03-08T00:49:16;15.73;;;6.70;;
52508;SDS011;38420;53.150;6.370;2024-03-08T00:51:41;15.13;;;8.75;;
52508;SDS011;38420;53.150;6.370;2024-03-08T00:54:08;22.65;;;8.98;;
52508;SDS011;38420;53.150;6.370;2024-03-08T00:56:34;17.88;;;8.40;;
52508;SDS011;38420;53.150;6.370;2024-03-08T00:59:00;16.55;;;7.43;;
52508;SDS011;38420;53.150;6.370;2024-03-08T01:01:27;21.85;;;9.25;;
52508;SDS011;38420;53.150;6.370;2024-03-08T01:03:53;23.27;;;9.80;;
52508;SDS011;38420;53.150;6.370;2024-03-08T01:06:19;22.67;;;8.88;;
52508;SDS011;38420;53.150;6.370;2024-03-08T01:08:44;22.42;;;9.15;;
52508;SDS011;38420;53.150;6.370;2024-03-08T01:11:12;20.58;;;9.07;;
52508;SDS011;38420;53.150;6.370;2024-03-08T01:13:38;25.00;;;10.23;;
52508;SDS011;38420;53.150;6.370;2024-03-08T01:16:04;23.63;;;8.95;;
52508;SDS011;38420;53.150;6.370;2024-03-08T01:18:30;17.92;;;9.35;;
52508;SDS011;38420;53.150;6.370;2024-03-08T01:20:57;20.98;;;9.50;;
52508;SDS011;38420;53.150;6.370;2024-03-08T01:23:22;23.50;;;9.65;;
52508;SDS011;38420;53.150;6.370;2024-03-08T01:25:48;20.17;;;8.52;;
52508;SDS011;38420;53.150;6.370;2024-03-08T01:28:17;26.75;;;10.73;;
52508;SDS011;38420;53.150;6.370;2024-03-08T01:30:42;17.08;;;9.25;;
52508;SDS011;38420;53.150;6.370;2024-03-08T01:33:08;22.95;;;9.65;;
52508;SDS011;38420;53.150;6.370;2024-03-08T01:35:33;19.42;;;7.63;;
52508;SDS011;38420;53.150;6.370;2024-03-08T01:37:59;21.48;;;10.38;;
52508;SDS011;38420;53.150;6.370;2024-03-08T01:40:25;21.27;;;9.15;;
52508;SDS011;38420;53.150;6.370;2024-03-08T01:42:50;27.40;;;9.35;;
52508;SDS011;38420;53.150;6.370;2024-03-08T01:45:16;19.30;;;8.68;;
52508;SDS011;38420;53.150;6.370;2024-03-08T01:47:41;24.98;;;9.55;;
52508;SDS011;38420;53.150;6.370;2024-03-08T01:50:07;18.88;;;9.00;;
52508;SDS011;38420;53.150;6.370;2024-03-08T01:52:34;22.60;;;11.55;;
52508;SDS011;38420;53.150;6.370;2024-03-08T01:55:00;21.50;;;9.68;;
52508;SDS011;38420;53.150;6.370;2024-03-08T01:57:28;15.90;;;8.65;;
52508;SDS011;38420;53.150;6.370;2024-03-08T01:59:58;24.02;;;8.18;;
52508;SDS011;38420;53.150;6.370;2024-03-08T02:02:28;26.60;;;9.77;;
52508;SDS011;38420;53.150;6.370;2024-03-08T02:04:57;23.55;;;11.38;;
52508;SDS011;38420;53.150;6.370;2024-03-08T02:07:23;25.13;;;10.48;;
52508;SDS011;38420;53.150;6.370;2024-03-08T02:09:48;27.13;;;11.18;;
52508;SDS011;38420;53.150;6.370;2024-03-08T02:12:14;23.83;;;10.40;;
52508;SDS011;38420;53.150;6.370;2024-03-08T02:14:39;26.17;;;11.15;;
52508;SDS011;38420;53.150;6.370;2024-03-08T02:17:05;22.63;;;10.43;;
52508;SDS011;38420;53.150;6.370;2024-03-08T02:19:31;18.80;;;8.88;;
52508;SDS011;38420;53.150;6.370;2024-03-08T02:21:58;23.45;;;10.80;;
52508;SDS011;38420;53.150;6.370;2024-03-08T02:24:24;22.42;;;8.88;;
52508;SDS011;38420;53.150;6.370;2024-03-08T02:26:50;21.98;;;9.63;;
52508;SDS011;38420;53.150;6.370;2024-03-08T02:29:16;20.67;;;8.73;;
52508;SDS011;38420;53.150;6.370;2024-03-08T02:31:42;22.80;;;11.00;;
52508;SDS011;38420;53.150;6.370;2024-03-08T02:34:08;19.88;;;9.93;;
52508;SDS011;38420;53.150;6.370;2024-03-08T02:36:34;24.38;;;9.70;;
52508;SDS011;38420;53.150;6.370;2024-03-08T02:39:03;26.98;;;12.35;;
52508;SDS011;38420;53.150;6.370;2024-03-08T02:41:30;24.67;;;11.07;;
52508;SDS011;38420;53.150;6.370;2024-03-08T02:43:55;23.98;;;9.02;;
52508;SDS011;38420;53.150;6.370;2024-03-08T02:46:21;26.00;;;10.27;;
52508;SDS011;38420;53.150;6.370;2024-03-08T02:48:47;29.25;;;10.25;;
52508;SDS011;38420;53.150;6.370;2024-03-08T02:51:12;21.38;;;10.73;;
52508;SDS011;38420;53.150;6.370;2024-03-08T02:53:38;23.88;;;9.68;;
52508;SDS011;38420;53.150;6.370;2024-03-08T02:56:04;24.63;;;9.57;;
52508;SDS011;38420;53.150;6.370;2024-03-08T02:58:33;17.52;;;9.13;;
52508;SDS011;38420;53.150;6.370;2024-03-08T03:00:59;26.90;;;9.73;;
52508;SDS011;38420;53.150;6.370;2024-03-08T03:03:25;20.23;;;8.82;;
52508;SDS011;38420;53.150;6.370;2024-03-08T03:05:51;26.27;;;11.55;;
52508;SDS011;38420;53.150;6.370;2024-03-08T03:08:20;34.75;;;8.88;;
52508;SDS011;38420;53.150;6.370;2024-03-08T03:10:46;27.92;;;11.05;;
52508;SDS011;38420;53.150;6.370;2024-03-08T03:13:12;18.83;;;9.23;;
52508;SDS011;38420;53.150;6.370;2024-03-08T03:15:39;17.77;;;9.27;;
52508;SDS011;38420;53.150;6.370;2024-03-08T03:18:07;21.38;;;9.25;;
52508;SDS011;38420;53.150;6.370;2024-03-08T03:20:33;19.23;;;8.32;;
52508;SDS011;38420;53.150;6.370;2024-03-08T03:23:02;23.60;;;9.70;;
52508;SDS011;38420;53.150;6.370;2024-03-08T03:25:28;22.67;;;12.82;;
52508;SDS011;38420;53.150;6.370;2024-03-08T03:27:58;17.58;;;9.38;;
52508;SDS011;38420;53.150;6.370;2024-03-08T03:30:24;20.63;;;9.05;;
52508;SDS011;38420;53.150;6.370;2024-03-08T03:32:51;23.73;;;9.63;;
52508;SDS011;38420;53.150;6.370;2024-03-08T03:35:18;20.67;;;9.20;;
52508;SDS011;38420;53.150;6.370;2024-03-08T03:37:45;19.15;;;10.80;;
52508;SDS011;38420;53.150;6.370;2024-03-08T03:40:26;20.73;;;9.87;;
52508;SDS011;38420;53.150;6.370;2024-03-08T03:42:53;24.20;;;9.48;;
52508;SDS011;38420;53.150;6.370;2024-03-08T03:45:18;20.30;;;11.18;;
52508;SDS011;38420;53.150;6.370;2024-03-08T03:47:45;29.67;;;10.88;;
52508;SDS011;38420;53.150;6.370;2024-03-08T03:50:11;20.20;;;8.93;;
52508;SDS011;38420;53.150;6.370;2024-03-08T03:52:36;22.52;;;12.00;;
52508;SDS011;38420;53.150;6.370;2024-03-08T03:55:02;24.90;;;10.23;;
52508;SDS011;38420;53.150;6.370;2024-03-08T03:57:29;28.05;;;9.05;;
52508;SDS011;38420;53.150;6.370;2024-03-08T03:59:55;26.48;;;10.38;;
52508;SDS011;38420;53.150;6.370;2024-03-08T04:02:23;24.33;;;9.68;;
52508;SDS011;38420;53.150;6.370;2024-03-08T04:04:51;25.08;;;10.93;;
52508;SDS011;38420;53.150;6.370;2024-03-08T04:07:17;19.65;;;9.00;;
52508;SDS011;38420;53.150;6.370;2024-03-08T04:09:43;24.17;;;8.73;;
52508;SDS011;38420;53.150;6.370;2024-03-08T04:12:09;23.55;;;10.50;;
52508;SDS011;38420;53.150;6.370;2024-03-08T04:14:35;19.98;;;9.82;;
52508;SDS011;38420;53.150;6.370;2024-03-08T04:17:01;23.33;;;9.70;;
52508;SDS011;38420;53.150;6.370;2024-03-08T04:19:27;18.83;;;10.13;;
52508;SDS011;38420;53.150;6.370;2024-03-08T04:21:53;16.92;;;8.75;;
52508;SDS011;38420;53.150;6.370;2024-03-08T04:24:19;26.05;;;10.85;;
52508;SDS011;38420;53.150;6.370;2024-03-08T04:26:45;21.75;;;9.60;;
52508;SDS011;38420;53.150;6.370;2024-03-08T04:29:11;24.83;;;9.32;;
52508;SDS011;38420;53.150;6.370;2024-03-08T04:31:39;26.63;;;9.38;;
52508;SDS011;38420;53.150;6.370;2024-03-08T04:34:05;17.65;;;8.32;;
52508;SDS011;38420;53.150;6.370;2024-03-08T04:36:31;19.25;;;8.27;;
52508;SDS011;38420;53.150;6.370;2024-03-08T04:38:56;24.73;;;9.52;;
52508;SDS011;38420;53.150;6.370;2024-03-08T04:41:22;23.30;;;9.68;;
52508;SDS011;38420;53.150;6.370;2024-03-08T04:43:48;20.83;;;9.45;;
52508;SDS011;38420;53.150;6.370;2024-03-08T04:46:14;19.85;;;9.88;;
52508;SDS011;38420;53.150;6.370;2024-03-08T04:48:41;23.00;;;9.65;;
52508;SDS011;38420;53.150;6.370;2024-03-08T04:51:08;18.27;;;8.55;;
52508;SDS011;38420;53.150;6.370;2024-03-08T04:53:34;24.35;;;10.68;;
52508;SDS011;38420;53.150;6.370;2024-03-08T04:56:00;25.42;;;9.95;;
52508;SDS011;38420;53.150;6.370;2024-03-08T04:58:31;21.17;;;8.70;;
52508;SDS011;38420;53.150;6.370;2024-03-08T05:01:05;22.63;;;9.27;;
52508;SDS011;38420;53.150;6.370;2024-03-08T05:03:30;23.35;;;9.43;;
52508;SDS011;38420;53.150;6.370;2024-03-08T05:05:56;19.50;;;8.30;;
52508;SDS011;38420;53.150;6.370;2024-03-08T05:08:22;25.60;;;9.63;;
52508;SDS011;38420;53.150;6.370;2024-03-08T05:10:47;18.23;;;9.77;;
52508;SDS011;38420;53.150;6.370;2024-03-08T05:13:13;25.15;;;8.27;;
52508;SDS011;38420;53.150;6.370;2024-03-08T05:15:38;25.15;;;10.48;;
52508;SDS011;38420;53.150;6.370;2024-03-08T05:18:04;21.23;;;10.15;;
52508;SDS011;38420;53.150;6.370;2024-03-08T05:20:30;17.13;;;7.63;;
52508;SDS011;38420;53.150;6.370;2024-03-08T05:22:56;23.75;;;9.63;;
52508;SDS011;38420;53.150;6.370;2024-03-08T05:25:25;22.13;;;9.43;;
52508;SDS011;38420;53.150;6.370;2024-03-08T05:27:51;20.35;;;9.23;;
52508;SDS011;38420;53.150;6.370;2024-03-08T05:30:17;23.42;;;9.30;;
52508;SDS011;38420;53.150;6.370;2024-03-08T05:32:42;23.10;;;8.63;;
52508;SDS011;38420;53.150;6.370;2024-03-08T05:35:10;18.88;;;9.60;;
52508;SDS011;38420;53.150;6.370;2024-03-08T05:37:37;21.67;;;8.82;;
52508;SDS011;38420;53.150;6.370;2024-03-08T05:40:03;18.58;;;8.63;;
52508;SDS011;38420;53.150;6.370;2024-03-08T05:42:34;22.80;;;9.77;;
52508;SDS011;38420;53.150;6.370;2024-03-08T05:45:00;20.60;;;8.32;;
52508;SDS011;38420;53.150;6.370;2024-03-08T05:47:25;20.65;;;8.85;;
52508;SDS011;38420;53.150;6.370;2024-03-08T05:49:51;25.33;;;8.70;;
52508;SDS011;38420;53.150;6.370;2024-03-08T05:52:18;22.02;;;9.13;;
52508;SDS011;38420;53.150;6.370;2024-03-08T05:54:44;17.83;;;7.40;;
52508;SDS011;38420;53.150;6.370;2024-03-08T05:57:10;20.33;;;10.25;;
52508;SDS011;38420;53.150;6.370;2024-03-08T05:59:36;23.98;;;10.65;;
52508;SDS011;38420;53.150;6.370;2024-03-08T06:02:02;20.77;;;9.18;;
52508;SDS011;38420;53.150;6.370;2024-03-08T06:04:28;24.98;;;10.20;;
52508;SDS011;38420;53.150;6.370;2024-03-08T06:06:54;19.17;;;8.93;;
52508;SDS011;38420;53.150;6.370;2024-03-08T06:09:22;28.90;;;11.05;;
52508;SDS011;38420;53.150;6.370;2024-03-08T06:11:48;29.75;;;12.15;;
52508;SDS011;38420;53.150;6.370;2024-03-08T06:14:14;23.67;;;11.27;;
52508;SDS011;38420;53.150;6.370;2024-03-08T06:16:43;27.20;;;8.93;;
52508;SDS011;38420;53.150;6.370;2024-03-08T06:19:10;23.95;;;10.05;;
52508;SDS011;38420;53.150;6.370;2024-03-08T06:21:35;21.88;;;8.40;;
52508;SDS011;38420;53.150;6.370;2024-03-08T06:24:01;23.83;;;9.80;;
52508;SDS011;38420;53.150;6.370;2024-03-08T06:26:27;22.67;;;10.38;;
52508;SDS011;38420;53.150;6.370;2024-03-08T06:28:56;26.23;;;11.40;;
52508;SDS011;38420;53.150;6.370;2024-03-08T06:31:21;27.40;;;12.82;;
52508;SDS011;38420;53.150;6.370;2024-03-08T06:33:47;26.90;;;10.77;;
52508;SDS011;38420;53.150;6.370;2024-03-08T06:36:17;26.45;;;11.63;;
52508;SDS011;38420;53.150;6.370;2024-03-08T06:38:49;28.23;;;11.95;;
52508;SDS011;38420;53.150;6.370;2024-03-08T06:41:15;20.40;;;10.63;;
52508;SDS011;38420;53.150;6.370;2024-03-08T06:43:42;26.80;;;11.07;;
52508;SDS011;38420;53.150;6.370;2024-03-08T06:46:11;24.48;;;11.32;;
52508;SDS011;38420;53.150;6.370;2024-03-08T06:48:40;24.77;;;10.38;;
52508;SDS011;38420;53.150;6.370;2024-03-08T06:51:06;25.88;;;11.00;;
52508;SDS011;38420;53.150;6.370;2024-03-08T06:53:32;30.77;;;11.20;;
52508;SDS011;38420;53.150;6.370;2024-03-08T06:56:00;26.23;;;11.35;;
52508;SDS011;38420;53.150;6.370;2024-03-08T06:58:26;27.05;;;11.23;;
52508;SDS011;38420;53.150;6.370;2024-03-08T07:00:52;26.10;;;10.40;;
52508;SDS011;38420;53.150;6.370;2024-03-08T07:03:18;21.52;;;11.30;;
52508;SDS011;38420;53.150;6.370;2024-03-08T07:05:44;25.45;;;11.25;;
52508;SDS011;38420;53.150;6.370;2024-03-08T07:08:10;27.10;;;11.55;;
52508;SDS011;38420;53.150;6.370;2024-03-08T07:10:37;30.42;;;12.07;;
52508;SDS011;38420;53.150;6.370;2024-03-08T07:13:06;27.48;;;12.27;;
52508;SDS011;38420;53.150;6.370;2024-03-08T07:15:33;25.20;;;12.27;;
52508;SDS011;38420;53.150;6.370;2024-03-08T07:17:58;26.48;;;12.43;;
52508;SDS011;38420;53.150;6.370;2024-03-08T07:20:25;27.35;;;11.27;;
52508;SDS011;38420;53.150;6.370;2024-03-08T07:22:50;24.60;;;10.82;;
52508;SDS011;38420;53.150;6.370;2024-03-08T07:25:16;33.88;;;12.25;;
52508;SDS011;38420;53.150;6.370;2024-03-08T07:27:49;27.85;;;12.35;;
52508;SDS011;38420;53.150;6.370;2024-03-08T07:30:22;26.30;;;12.05;;
52508;SDS011;38420;53.150;6.370;2024-03-08T07:33:08;32.55;;;12.63;;
52508;SDS011;38420;53.150;6.370;2024-03-08T07:35:36;32.60;;;11.43;;
52508;SDS011;38420;53.150;6.370;2024-03-08T07:38:05;24.05;;;10.73;;
52508;SDS011;38420;53.150;6.370;2024-03-08T07:40:35;24.33;;;13.20;;
52508;SDS011;38420;53.150;6.370;2024-03-08T07:43:03;29.43;;;10.40;;
52508;SDS011;38420;53.150;6.370;2024-03-08T07:45:28;25.80;;;11.23;;
52508;SDS011;38420;53.150;6.370;2024-03-08T07:47:55;34.00;;;12.25;;
52508;SDS011;38420;53.150;6.370;2024-03-08T07:50:21;29.77;;;13.77;;
52508;SDS011;38420;53.150;6.370;2024-03-08T07:52:47;27.27;;;11.43;;
52508;SDS011;38420;53.150;6.370;2024-03-08T07:55:13;29.42;;;11.70;;
52508;SDS011;38420;53.150;6.370;2024-03-08T07:57:40;28.70;;;13.60;;
52508;SDS011;38420;53.150;6.370;2024-03-08T08:00:05;24.20;;;11.02;;
52508;SDS011;38420;53.150;6.370;2024-03-08T08:02:33;26.83;;;11.63;;
52508;SDS011;38420;53.150;6.370;2024-03-08T08:05:00;28.73;;;11.35;;
52508;SDS011;38420;53.150;6.370;2024-03-08T08:07:26;22.17;;;11.25;;
52508;SDS011;38420;53.150;6.370;2024-03-08T08:09:52;26.02;;;12.45;;
52508;SDS011;38420;53.150;6.370;2024-03-08T08:12:18;27.40;;;12.85;;
52508;SDS011;38420;53.150;6.370;2024-03-08T08:14:44;27.90;;;13.65;;
52508;SDS011;38420;53.150;6.370;2024-03-08T08:17:09;30.35;;;12.73;;
52508;SDS011;38420;53.150;6.370;2024-03-08T08:19:35;28.90;;;12.13;;
52508;SDS011;38420;53.150;6.370;2024-03-08T08:22:01;28.55;;;11.80;;
52508;SDS011;38420;53.150;6.370;2024-03-08T08:24:27;31.65;;;13.02;;
52508;SDS011;38420;53.150;6.370;2024-03-08T08:26:53;27.52;;;12.73;;
52508;SDS011;38420;53.150;6.370;2024-03-08T08:29:19;28.45;;;13.70;;
52508;SDS011;38420;53.150;6.370;2024-03-08T08:31:45;27.60;;;12.93;;
52508;SDS011;38420;53.150;6.370;2024-03-08T08:34:12;34.33;;;14.88;;
52508;SDS011;38420;53.150;6.370;2024-03-08T08:36:38;34.90;;;12.55;;
52508;SDS011;38420;53.150;6.370;2024-03-08T08:39:04;28.70;;;12.52;;
52508;SDS011;38420;53.150;6.370;2024-03-08T08:41:37;32.30;;;15.07;;
52508;SDS011;38420;53.150;6.370;2024-03-08T08:44:03;29.67;;;13.25;;
52508;SDS011;38420;53.150;6.370;2024-03-08T08:46:28;29.60;;;13.45;;
52508;SDS011;38420;53.150;6.370;2024-03-08T08:48:54;27.67;;;12.82;;
52508;SDS011;38420;53.150;6.370;2024-03-08T08:51:20;36.10;;;16.15;;
52508;SDS011;38420;53.150;6.370;2024-03-08T08:53:45;25.20;;;13.35;;
52508;SDS011;38420;53.150;6.370;2024-03-08T08:56:12;37.17;;;15.32;;
52508;SDS011;38420;53.150;6.370;2024-03-08T08:58:42;33.47;;;15.27;;
52508;SDS011;38420;53.150;6.370;2024-03-08T09:01:08;30.35;;;13.27;;
52508;SDS011;38420;53.150;6.370;2024-03-08T09:03:37;35.15;;;14.23;;
52508;SDS011;38420;53.150;6.370;2024-03-08T09:06:05;28.80;;;14.40;;
52508;SDS011;38420;53.150;6.370;2024-03-08T09:08:35;37.88;;;15.30;;
52508;SDS011;38420;53.150;6.370;2024-03-08T09:11:01;28.25;;;15.15;;
52508;SDS011;38420;53.150;6.370;2024-03-08T09:13:27;30.45;;;16.58;;
52508;SDS011;38420;53.150;6.370;2024-03-08T09:15:52;30.27;;;15.20;;
52508;SDS011;38420;53.150;6.370;2024-03-08T09:18:18;27.23;;;14.05;;
52508;SDS011;38420;53.150;6.370;2024-03-08T09:20:44;31.55;;;16.67;;
52508;SDS011;38420;53.150;6.370;2024-03-08T09:23:10;34.78;;;16.63;;
52508;SDS011;38420;53.150;6.370;2024-03-08T09:25:35;29.75;;;15.85;;
52508;SDS011;38420;53.150;6.370;2024-03-08T09:28:01;32.58;;;15.88;;
52508;SDS011;38420;53.150;6.370;2024-03-08T09:30:26;29.50;;;15.02;;
52508;SDS011;38420;53.150;6.370;2024-03-08T09:32:52;27.60;;;15.40;;
52508;SDS011;38420;53.150;6.370;2024-03-08T09:35:18;29.27;;;14.30;;
52508;SDS011;38420;53.150;6.370;2024-03-08T09:37:44;27.85;;;14.18;;
52508;SDS011;38420;53.150;6.370;2024-03-08T09:40:12;26.60;;;14.02;;
52508;SDS011;38420;53.150;6.370;2024-03-08T09:42:40;26.90;;;14.55;;
52508;SDS011;38420;53.150;6.370;2024-03-08T09:45:10;25.83;;;12.73;;
52508;SDS011;38420;53.150;6.370;2024-03-08T09:47:39;24.92;;;13.05;;
52508;SDS011;38420;53.150;6.370;2024-03-08T09:50:07;24.05;;;13.23;;
52508;SDS011;38420;53.150;6.370;2024-03-08T09:52:40;24.73;;;13.82;;
52508;SDS011;38420;53.150;6.370;2024-03-08T09:55:09;30.50;;;13.45;;
52508;SDS011;38420;53.150;6.370;2024-03-08T09:57:39;26.55;;;13.13;;
52508;SDS011;38420;53.150;6.370;2024-03-08T10:00:05;29.02;;;13.80;;
52508;SDS011;38420;53.150;6.370;2024-03-08T10:02:46;32.33;;;14.48;;
52508;SDS011;38420;53.150;6.370;2024-03-08T10:05:12;27.33;;;12.57;;
52508;SDS011;38420;53.150;6.370;2024-03-08T10:07:39;30.63;;;15.40;;
52508;SDS011;38420;53.150;6.370;2024-03-08T10:10:05;28.25;;;14.52;;
52508;SDS011;38420;53.150;6.370;2024-03-08T10:12:30;28.35;;;12.23;;
52508;SDS011;38420;53.150;6.370;2024-03-08T10:14:58;27.92;;;13.50;;
52508;SDS011;38420;53.150;6.370;2024-03-08T10:17:24;28.58;;;13.73;;
52508;SDS011;38420;53.150;6.370;2024-03-08T10:19:50;22.65;;;12.30;;
52508;SDS011;38420;53.150;6.370;2024-03-08T10:22:17;33.13;;;15.82;;
52508;SDS011;38420;53.150;6.370;2024-03-08T10:24:45;27.75;;;13.27;;
52508;SDS011;38420;53.150;6.370;2024-03-08T10:27:16;26.57;;;13.73;;
52508;SDS011;38420;53.150;6.370;2024-03-08T10:29:42;27.20;;;13.43;;
52508;SDS011;38420;53.150;6.370;2024-03-08T10:32:09;26.90;;;13.55;;
52508;SDS011;38420;53.150;6.370;2024-03-08T10:34:35;29.27;;;12.85;;
52508;SDS011;38420;53.150;6.370;2024-03-08T10:37:03;28.67;;;13.23;;
52508;SDS011;38420;53.150;6.370;2024-03-08T10:39:31;31.38;;;14.23;;
52508;SDS011;38420;53.150;6.370;2024-03-08T10:42:02;30.35;;;14.27;;
52508;SDS011;38420;53.150;6.370;2024-03-08T10:49:30;23.58;;;12.18;;
52508;SDS011;38420;53.150;6.370;2024-03-08T10:52:16;28.45;;;14.10;;
52508;SDS011;38420;53.150;6.370;2024-03-08T10:54:43;29.65;;;14.35;;
52508;SDS011;38420;53.150;6.370;2024-03-08T10:57:12;31.15;;;14.77;;
52508;SDS011;38420;53.150;6.370;2024-03-08T10:59:40;28.30;;;14.45;;
52508;SDS011;38420;53.150;6.370;2024-03-08T11:02:09;28.73;;;13.27;;
52508;SDS011;38420;53.150;6.370;2024-03-08T11:04:37;28.27;;;13.23;;
52508;SDS011;38420;53.150;6.370;2024-03-08T11:07:03;31.67;;;14.20;;
52508;SDS011;38420;53.150;6.370;2024-03-08T11:09:32;28.58;;;13.82;;
52508;SDS011;38420;53.150;6.370;2024-03-08T11:14:50;28.75;;;15.05;;
52508;SDS011;38420;53.150;6.370;2024-03-08T11:17:59;30.85;;;13.63;;
52508;SDS011;38420;53.150;6.370;2024-03-08T11:20:10;34.15;;;12.43;;
52508;SDS011;38420;53.150;6.370;2024-03-08T11:22:49;27.80;;;12.90;;
52508;SDS011;38420;53.150;6.370;2024-03-08T11:25:34;29.38;;;13.57;;
52508;SDS011;38420;53.150;6.370;2024-03-08T11:28:09;26.75;;;13.20;;
52508;SDS011;38420;53.150;6.370;2024-03-08T11:31:27;30.92;;;14.40;;
52508;SDS011;38420;53.150;6.370;2024-03-08T11:33:28;31.23;;;14.95;;
52508;SDS011;38420;53.150;6.370;2024-03-08T11:38:39;29.65;;;13.55;;
52508;SDS011;38420;53.150;6.370;2024-03-08T11:41:06;27.77;;;14.07;;
52508;SDS011;38420;53.150;6.370;2024-03-08T11:43:33;31.35;;;14.68;;
52508;SDS011;38420;53.150;6.370;2024-03-08T11:46:10;32.30;;;13.10;;
52508;SDS011;38420;53.150;6.370;2024-03-08T11:48:40;28.55;;;14.55;;
52508;SDS011;38420;53.150;6.370;2024-03-08T11:51:12;30.65;;;14.35;;
52508;SDS011;38420;53.150;6.370;2024-03-08T11:53:39;25.10;;;13.63;;
52508;SDS011;38420;53.150;6.370;2024-03-08T11:56:09;27.75;;;13.88;;
52508;SDS011;38420;53.150;6.370;2024-03-08T11:58:36;26.67;;;13.88;;
52508;SDS011;38420;53.150;6.370;2024-03-08T12:01:03;31.15;;;14.52;;
52508;SDS011;38420;53.150;6.370;2024-03-08T12:03:30;31.33;;;15.07;;
52508;SDS011;38420;53.150;6.370;2024-03-08T12:05:59;29.45;;;14.82;;
52508;SDS011;38420;53.150;6.370;2024-03-08T12:08:30;25.48;;;13.10;;
52508;SDS011;38420;53.150;6.370;2024-03-08T12:10:56;31.00;;;15.90;;
52508;SDS011;38420;53.150;6.370;2024-03-08T12:13:25;33.53;;;14.75;;
52508;SDS011;38420;53.150;6.370;2024-03-08T12:15:56;31.33;;;15.23;;
52508;SDS011;38420;53.150;6.370;2024-03-08T12:18:25;30.50;;;14.57;;
52508;SDS011;38420;53.150;6.370;2024-03-08T12:21:10;28.95;;;14.50;;
52508;SDS011;38420;53.150;6.370;2024-03-08T12:23:39;27.17;;;14.60;;
52508;SDS011;38420;53.150;6.370;2024-03-08T12:26:15;28.20;;;14.07;;
52508;SDS011;38420;53.150;6.370;2024-03-08T12:29:34;27.85;;;14.13;;
52508;SDS011;38420;53.150;6.370;2024-03-08T12:31:58;29.25;;;13.82;;
52508;SDS011;38420;53.150;6.370;2024-03-08T12:34:25;29.58;;;13.93;;
52508;SDS011;38420;53.150;6.370;2024-03-08T12:36:53;29.88;;;14.10;;
52508;SDS011;38420;53.150;6.370;2024-03-08T12:39:20;31.75;;;14.90;;
52508;SDS011;38420;53.150;6.370;2024-03-08T12:41:53;31.73;;;15.07;;
52508;SDS011;38420;53.150;6.370;2024-03-08T12:44:19;28.65;;;13.40;;
52508;SDS011;38420;53.150;6.370;2024-03-08T12:46:50;29.48;;;14.55;;
52508;SDS011;38420;53.150;6.370;2024-03-08T12:49:16;31.88;;;14.68;;
52508;SDS011;38420;53.150;6.370;2024-03-08T12:51:47;28.00;;;14.30;;
52508;SDS011;38420;53.150;6.370;2024-03-08T12:54:13;26.33;;;14.82;;
52508;SDS011;38420;53.150;6.370;2024-03-08T12:56:39;28.73;;;14.57;;
52508;SDS011;38420;53.150;6.370;2024-03-08T12:59:05;30.30;;;16.25;;
52508;SDS011;38420;53.150;6.370;2024-03-08T13:01:35;29.02;;;14.35;;
52508;SDS011;38420;53.150;6.370;2024-03-08T13:04:02;30.20;;;14.80;;
52508;SDS011;38420;53.150;6.370;2024-03-08T13:06:31;32.25;;;14.68;;
52508;SDS011;38420;53.150;6.370;2024-03-08T13:08:57;26.45;;;12.90;;
52508;SDS011;38420;53.150;6.370;2024-03-08T13:11:24;27.95;;;14.40;;
52508;SDS011;38420;53.150;6.370;2024-03-08T13:13:52;31.50;;;14.70;;
52508;SDS011;38420;53.150;6.370;2024-03-08T13:16:18;24.58;;;13.40;;
52508;SDS011;38420;53.150;6.370;2024-03-08T13:18:44;28.15;;;13.98;;
52508;SDS011;38420;53.150;6.370;2024-03-08T13:21:13;26.42;;;13.02;;
52508;SDS011;38420;53.150;6.370;2024-03-08T13:23:40;25.70;;;13.57;;
52508;SDS011;38420;53.150;6.370;2024-03-08T13:26:10;26.25;;;14.10;;
52508;SDS011;38420;53.150;6.370;2024-03-08T13:28:41;25.63;;;13.07;;
52508;SDS011;38420;53.150;6.370;2024-03-08T13:31:19;23.10;;;12.40;;
52508;SDS011;38420;53.150;6.370;2024-03-08T13:33:45;26.02;;;13.48;;
52508;SDS011;38420;53.150;6.370;2024-03-08T13:36:14;27.77;;;13.23;;
52508;SDS011;38420;53.150;6.370;2024-03-08T13:38:44;23.13;;;12.65;;
52508;SDS011;38420;53.150;6.370;2024-03-08T13:41:11;24.55;;;11.90;;
52508;SDS011;38420;53.150;6.370;2024-03-08T13:43:39;28.70;;;12.15;;
52508;SDS011;38420;53.150;6.370;2024-03-08T13:46:08;27.65;;;13.38;;
52508;SDS011;38420;53.150;6.370;2024-03-08T13:48:35;26.33;;;13.98;;
52508;SDS011;38420;53.150;6.370;2024-03-08T13:51:02;25.60;;;11.80;;
52508;SDS011;38420;53.150;6.370;2024-03-08T13:53:30;26.20;;;12.20;;
52508;SDS011;38420;53.150;6.370;2024-03-08T13:55:56;28.40;;;13.27;;
52508;SDS011;38420;53.150;6.370;2024-03-08T13:58:22;24.48;;;12.70;;
52508;SDS011;38420;53.150;6.370;2024-03-08T14:00:47;26.65;;;11.77;;
52508;SDS011;38420;53.150;6.370;2024-03-08T14:03:13;25.73;;;12.10;;
52508;SDS011;38420;53.150;6.370;2024-03-08T14:05:39;29.48;;;12.65;;
52508;SDS011;38420;53.150;6.370;2024-03-08T14:08:06;27.27;;;11.50;;
52508;SDS011;38420;53.150;6.370;2024-03-08T14:10:33;21.83;;;11.40;;
52508;SDS011;38420;53.150;6.370;2024-03-08T14:12:59;21.73;;;12.30;;
52508;SDS011;38420;53.150;6.370;2024-03-08T14:15:26;24.67;;;12.60;;
52508;SDS011;38420;53.150;6.370;2024-03-08T14:17:55;25.23;;;12.10;;
52508;SDS011;38420;53.150;6.370;2024-03-08T14:20:21;22.50;;;11.13;;
52508;SDS011;38420;53.150;6.370;2024-03-08T14:22:53;22.25;;;11.70;;
52508;SDS011;38420;53.150;6.370;2024-03-08T14:25:22;22.50;;;11.05;;
52508;SDS011;38420;53.150;6.370;2024-03-08T14:27:53;21.60;;;10.55;;
52508;SDS011;38420;53.150;6.370;2024-03-08T14:30:19;22.83;;;12.45;;
52508;SDS011;38420;53.150;6.370;2024-03-08T14:33:06;27.60;;;13.02;;
52508;SDS011;38420;53.150;6.370;2024-03-08T14:35:36;23.15;;;10.93;;
52508;SDS011;38420;53.150;6.370;2024-03-08T14:38:02;23.08;;;12.73;;